Portada
METAR-TAF:

METAR-TAF

Aeropuertos :

Aeropuerto de Sanikiluaq

Sanikiluaq, Nunavut, Canadá

latitud: 56-32N, longitud: 079-15W, altitud: 32 m

Observación

El informe se hizo hace 21 horas y 12 minutos, a las 22:00 UTC
Viento 7 kt del oeste-noroeste
Temperatura 7°C
Humedad 76%
Presión 1020 hPa
Visibilidad: 24.1 km
Cielo despejado

METAR: CYSK 202200Z 29007KT 15SM SKC 07/03 A3012 RMK LAST OBS/NEXT 231200UTC SLP203

Hora: 15:12 (19:12 UTC)


TAF: falta

Observaciones y pronósticos meteorológicos de más de 4000 aeropuertos (mensajes METAR y TAF).

Los puntos amarillos y rojos representan las estaciones disponibles.

Ponga el ratón en el punto deseado para ver el nombre de la estación.

Haga clic para ver las observaciones y los pronósticos meteorológicos.

Para cambiar el mapa : haga clic en los botones verdes con una cruz de color negro para hacer un zoom, en el botón verde con un guión para alejar o en las flechas verdes para mapas adyacentes.


METAR-TAF: